sensor_id;sensor_type;location;lat;lon;timestamp;temperature;humidity
9103;DHT22;4587;51.434;6.788;2023-04-28T00:02:02;11.30;95.30
9103;DHT22;4587;51.434;6.788;2023-04-28T00:04:28;11.20;96.70
9103;DHT22;4587;51.434;6.788;2023-04-28T00:06:54;11.20;98.20
9103;DHT22;4587;51.434;6.788;2023-04-28T00:09:19;11.20;99.50
9103;DHT22;4587;51.434;6.788;2023-04-28T00:11:45;11.20;99.90
9103;DHT22;4587;51.434;6.788;2023-04-28T00:14:12;11.10;99.90
9103;DHT22;4587;51.434;6.788;2023-04-28T00:16:37;11.10;99.90
9103;DHT22;4587;51.434;6.788;2023-04-28T00:19:03;11.00;99.90
9103;DHT22;4587;51.434;6.788;2023-04-28T00:21:29;10.90;99.90
9103;DHT22;4587;51.434;6.788;2023-04-28T00:23:54;10.90;99.90
9103;DHT22;4587;51.434;6.788;2023-04-28T00:26:20;10.90;99.90
9103;DHT22;4587;51.434;6.788;2023-04-28T00:28:46;10.90;99.90
9103;DHT22;4587;51.434;6.788;2023-04-28T00:31:13;10.80;99.90
9103;DHT22;4587;51.434;6.788;2023-04-28T00:33:39;10.90;99.90
9103;DHT22;4587;51.434;6.788;2023-04-28T00:36:06;10.80;99.90
9103;DHT22;4587;51.434;6.788;2023-04-28T00:38:32;10.80;99.90
9103;DHT22;4587;51.434;6.788;2023-04-28T00:40:58;10.80;99.90
9103;DHT22;4587;51.434;6.788;2023-04-28T00:43:24;10.70;99.90
9103;DHT22;4587;51.434;6.788;2023-04-28T00:45:50;10.70;99.90
9103;DHT22;4587;51.434;6.788;2023-04-28T00:48:16;10.70;99.90
9103;DHT22;4587;51.434;6.788;2023-04-28T00:50:43;10.70;99.90
9103;DHT22;4587;51.434;6.788;2023-04-28T00:53:10;10.60;99.90
9103;DHT22;4587;51.434;6.788;2023-04-28T00:55:36;10.50;99.90
9103;DHT22;4587;51.434;6.788;2023-04-28T00:58:03;10.50;99.90
9103;DHT22;4587;51.434;6.788;2023-04-28T01:00:29;10.50;99.90
9103;DHT22;4587;51.434;6.788;2023-04-28T01:02:56;10.50;99.90
9103;DHT22;4587;51.434;6.788;2023-04-28T01:05:26;10.50;99.90
9103;DHT22;4587;51.434;6.788;2023-04-28T01:07:52;10.40;99.90
9103;DHT22;4587;51.434;6.788;2023-04-28T01:10:19;10.30;99.90
9103;DHT22;4587;51.434;6.788;2023-04-28T01:12:45;10.40;99.90
9103;DHT22;4587;51.434;6.788;2023-04-28T01:15:15;10.30;99.90
9103;DHT22;4587;51.434;6.788;2023-04-28T01:17:41;10.40;99.90
9103;DHT22;4587;51.434;6.788;2023-04-28T01:20:07;10.40;99.90
9103;DHT22;4587;51.434;6.788;2023-04-28T01:22:33;10.30;99.90
9103;DHT22;4587;51.434;6.788;2023-04-28T01:24:59;10.20;99.90
9103;DHT22;4587;51.434;6.788;2023-04-28T01:27:25;10.10;99.90
9103;DHT22;4587;51.434;6.788;2023-04-28T01:29:51;10.20;99.90
9103;DHT22;4587;51.434;6.788;2023-04-28T01:32:16;10.20;99.90
9103;DHT22;4587;51.434;6.788;2023-04-28T01:34:42;10.20;99.90
9103;DHT22;4587;51.434;6.788;2023-04-28T01:37:08;10.20;99.90
9103;DHT22;4587;51.434;6.788;2023-04-28T01:39:33;10.10;99.90
9103;DHT22;4587;51.434;6.788;2023-04-28T01:42:00;10.10;99.90
9103;DHT22;4587;51.434;6.788;2023-04-28T01:44:26;10.00;99.90
9103;DHT22;4587;51.434;6.788;2023-04-28T01:46:52;10.00;99.90
9103;DHT22;4587;51.434;6.788;2023-04-28T01:49:18;10.00;99.90
9103;DHT22;4587;51.434;6.788;2023-04-28T01:51:43;10.00;99.90
9103;DHT22;4587;51.434;6.788;2023-04-28T01:54:09;10.00;99.90
9103;DHT22;4587;51.434;6.788;2023-04-28T01:56:35;10.00;99.90
9103;DHT22;4587;51.434;6.788;2023-04-28T01:59:01;10.00;99.90
9103;DHT22;4587;51.434;6.788;2023-04-28T02:01:26;9.90;99.90
9103;DHT22;4587;51.434;6.788;2023-04-28T02:03:52;9.90;99.90
9103;DHT22;4587;51.434;6.788;2023-04-28T02:06:22;9.90;99.90
9103;DHT22;4587;51.434;6.788;2023-04-28T02:08:48;9.90;99.90
9103;DHT22;4587;51.434;6.788;2023-04-28T02:11:13;10.00;99.90
9103;DHT22;4587;51.434;6.788;2023-04-28T02:13:39;9.90;99.90
9103;DHT22;4587;51.434;6.788;2023-04-28T02:16:05;9.90;99.90
9103;DHT22;4587;51.434;6.788;2023-04-28T02:18:31;9.80;99.90
9103;DHT22;4587;51.434;6.788;2023-04-28T02:20:57;9.80;99.90
9103;DHT22;4587;51.434;6.788;2023-04-28T02:23:22;9.80;99.90
9103;DHT22;4587;51.434;6.788;2023-04-28T02:25:48;9.80;99.90
9103;DHT22;4587;51.434;6.788;2023-04-28T02:28:14;9.80;99.90
9103;DHT22;4587;51.434;6.788;2023-04-28T02:30:39;9.80;99.90
9103;DHT22;4587;51.434;6.788;2023-04-28T02:33:05;9.80;99.90
9103;DHT22;4587;51.434;6.788;2023-04-28T02:35:31;9.80;99.90
9103;DHT22;4587;51.434;6.788;2023-04-28T02:37:56;9.80;99.90
9103;DHT22;4587;51.434;6.788;2023-04-28T02:40:22;9.80;99.90
9103;DHT22;4587;51.434;6.788;2023-04-28T02:42:48;9.90;99.90
9103;DHT22;4587;51.434;6.788;2023-04-28T02:45:13;9.80;99.90
9103;DHT22;4587;51.434;6.788;2023-04-28T02:47:39;9.90;99.90
9103;DHT22;4587;51.434;6.788;2023-04-28T02:50:05;9.90;99.90
9103;DHT22;4587;51.434;6.788;2023-04-28T02:52:31;9.90;99.90
9103;DHT22;4587;51.434;6.788;2023-04-28T02:54:57;9.90;99.90
9103;DHT22;4587;51.434;6.788;2023-04-28T02:57:23;9.80;99.90
9103;DHT22;4587;51.434;6.788;2023-04-28T02:59:49;9.80;99.90
9103;DHT22;4587;51.434;6.788;2023-04-28T03:02:14;9.90;99.90
9103;DHT22;4587;51.434;6.788;2023-04-28T03:04:40;9.80;99.90
9103;DHT22;4587;51.434;6.788;2023-04-28T03:07:06;9.80;99.90
9103;DHT22;4587;51.434;6.788;2023-04-28T03:09:32;9.80;99.90
9103;DHT22;4587;51.434;6.788;2023-04-28T03:11:57;9.70;99.90
9103;DHT22;4587;51.434;6.788;2023-04-28T03:14:23;9.70;99.90
9103;DHT22;4587;51.434;6.788;2023-04-28T03:16:49;9.80;99.90
9103;DHT22;4587;51.434;6.788;2023-04-28T03:19:15;9.80;99.90
9103;DHT22;4587;51.434;6.788;2023-04-28T03:21:41;9.80;99.90
9103;DHT22;4587;51.434;6.788;2023-04-28T03:24:06;9.90;99.90
9103;DHT22;4587;51.434;6.788;2023-04-28T03:26:32;9.80;99.90
9103;DHT22;4587;51.434;6.788;2023-04-28T03:28:58;9.80;99.90
9103;DHT22;4587;51.434;6.788;2023-04-28T03:31:24;9.80;99.90
9103;DHT22;4587;51.434;6.788;2023-04-28T03:33:50;9.90;99.90
9103;DHT22;4587;51.434;6.788;2023-04-28T03:36:15;10.10;99.90
9103;DHT22;4587;51.434;6.788;2023-04-28T03:38:41;10.10;99.90
9103;DHT22;4587;51.434;6.788;2023-04-28T03:41:07;10.00;99.90
9103;DHT22;4587;51.434;6.788;2023-04-28T03:43:32;10.00;99.90
9103;DHT22;4587;51.434;6.788;2023-04-28T03:46:00;10.00;99.90
9103;DHT22;4587;51.434;6.788;2023-04-28T03:48:25;10.00;99.90
9103;DHT22;4587;51.434;6.788;2023-04-28T03:50:51;10.00;99.90
9103;DHT22;4587;51.434;6.788;2023-04-28T03:53:17;10.00;99.90
9103;DHT22;4587;51.434;6.788;2023-04-28T03:55:43;10.10;99.90
9103;DHT22;4587;51.434;6.788;2023-04-28T03:58:09;10.20;99.90
9103;DHT22;4587;51.434;6.788;2023-04-28T04:00:34;10.20;99.90
9103;DHT22;4587;51.434;6.788;2023-04-28T04:03:00;10.30;99.90
9103;DHT22;4587;51.434;6.788;2023-04-28T04:05:26;10.40;99.90
9103;DHT22;4587;51.434;6.788;2023-04-28T04:07:51;10.40;99.90
9103;DHT22;4587;51.434;6.788;2023-04-28T04:10:17;10.50;99.90
9103;DHT22;4587;51.434;6.788;2023-04-28T04:12:43;10.50;99.90
9103;DHT22;4587;51.434;6.788;2023-04-28T04:15:09;10.50;99.90
9103;DHT22;4587;51.434;6.788;2023-04-28T04:17:35;10.60;99.90
9103;DHT22;4587;51.434;6.788;2023-04-28T04:20:00;10.70;99.90
9103;DHT22;4587;51.434;6.788;2023-04-28T04:22:26;10.70;99.90
9103;DHT22;4587;51.434;6.788;2023-04-28T04:24:52;10.70;99.90
9103;DHT22;4587;51.434;6.788;2023-04-28T04:27:17;10.70;99.90
9103;DHT22;4587;51.434;6.788;2023-04-28T04:29:43;10.80;99.90
9103;DHT22;4587;51.434;6.788;2023-04-28T04:32:09;10.70;99.90
9103;DHT22;4587;51.434;6.788;2023-04-28T04:34:35;10.70;99.90
9103;DHT22;4587;51.434;6.788;2023-04-28T04:37:01;10.70;99.90
9103;DHT22;4587;51.434;6.788;2023-04-28T04:39:27;10.80;99.90
9103;DHT22;4587;51.434;6.788;2023-04-28T04:41:52;10.80;99.90
9103;DHT22;4587;51.434;6.788;2023-04-28T04:44:18;10.80;99.90
9103;DHT22;4587;51.434;6.788;2023-04-28T04:46:44;10.80;99.90
9103;DHT22;4587;51.434;6.788;2023-04-28T04:49:10;10.90;99.90
9103;DHT22;4587;51.434;6.788;2023-04-28T04:51:36;10.90;99.90
9103;DHT22;4587;51.434;6.788;2023-04-28T04:54:02;10.90;99.90
9103;DHT22;4587;51.434;6.788;2023-04-28T04:56:28;10.90;99.90
9103;DHT22;4587;51.434;6.788;2023-04-28T04:58:53;10.90;99.90
9103;DHT22;4587;51.434;6.788;2023-04-28T05:01:19;10.90;99.90
9103;DHT22;4587;51.434;6.788;2023-04-28T05:03:45;10.90;99.90
9103;DHT22;4587;51.434;6.788;2023-04-28T05:06:10;10.90;99.90
9103;DHT22;4587;51.434;6.788;2023-04-28T05:08:36;10.90;99.90
9103;DHT22;4587;51.434;6.788;2023-04-28T05:11:02;10.80;99.90
9103;DHT22;4587;51.434;6.788;2023-04-28T05:13:27;10.80;99.90
9103;DHT22;4587;51.434;6.788;2023-04-28T05:15:53;10.80;99.90
9103;DHT22;4587;51.434;6.788;2023-04-28T05:18:18;10.90;99.90
9103;DHT22;4587;51.434;6.788;2023-04-28T05:20:44;10.90;99.90
9103;DHT22;4587;51.434;6.788;2023-04-28T05:23:10;10.90;99.90
9103;DHT22;4587;51.434;6.788;2023-04-28T05:25:35;10.90;99.90
9103;DHT22;4587;51.434;6.788;2023-04-28T05:28:01;10.90;99.90
9103;DHT22;4587;51.434;6.788;2023-04-28T05:30:32;10.90;99.90
9103;DHT22;4587;51.434;6.788;2023-04-28T05:32:57;10.90;99.90
9103;DHT22;4587;51.434;6.788;2023-04-28T05:35:23;10.90;99.90
9103;DHT22;4587;51.434;6.788;2023-04-28T05:37:49;11.00;99.90
9103;DHT22;4587;51.434;6.788;2023-04-28T05:40:15;11.00;99.90
9103;DHT22;4587;51.434;6.788;2023-04-28T05:42:41;11.00;99.90
9103;DHT22;4587;51.434;6.788;2023-04-28T05:45:07;11.10;99.90
9103;DHT22;4587;51.434;6.788;2023-04-28T05:47:32;11.10;99.90
9103;DHT22;4587;51.434;6.788;2023-04-28T05:49:58;11.10;99.90
9103;DHT22;4587;51.434;6.788;2023-04-28T05:52:24;11.20;99.90
9103;DHT22;4587;51.434;6.788;2023-04-28T05:54:49;11.10;99.90
9103;DHT22;4587;51.434;6.788;2023-04-28T05:57:15;11.10;99.90
9103;DHT22;4587;51.434;6.788;2023-04-28T05:59:41;11.10;99.90
9103;DHT22;4587;51.434;6.788;2023-04-28T06:02:07;11.10;99.90
9103;DHT22;4587;51.434;6.788;2023-04-28T06:04:32;11.10;99.90
9103;DHT22;4587;51.434;6.788;2023-04-28T06:06:58;11.10;99.90
9103;DHT22;4587;51.434;6.788;2023-04-28T06:09:24;11.20;99.90
9103;DHT22;4587;51.434;6.788;2023-04-28T06:11:49;11.20;99.90
9103;DHT22;4587;51.434;6.788;2023-04-28T06:14:15;11.30;99.90
9103;DHT22;4587;51.434;6.788;2023-04-28T06:16:41;11.30;99.90
9103;DHT22;4587;51.434;6.788;2023-04-28T06:19:07;11.30;99.90
9103;DHT22;4587;51.434;6.788;2023-04-28T06:21:32;11.40;99.90
9103;DHT22;4587;51.434;6.788;2023-04-28T06:23:58;11.50;99.90
9103;DHT22;4587;51.434;6.788;2023-04-28T06:26:24;11.50;99.90
9103;DHT22;4587;51.434;6.788;2023-04-28T06:28:49;11.60;99.90
9103;DHT22;4587;51.434;6.788;2023-04-28T06:31:15;11.60;99.90
9103;DHT22;4587;51.434;6.788;2023-04-28T06:33:41;11.70;99.90
9103;DHT22;4587;51.434;6.788;2023-04-28T06:36:07;11.80;99.90
9103;DHT22;4587;51.434;6.788;2023-04-28T06:38:33;11.80;99.90
9103;DHT22;4587;51.434;6.788;2023-04-28T06:40:58;11.80;99.90
9103;DHT22;4587;51.434;6.788;2023-04-28T06:43:24;11.80;99.90
9103;DHT22;4587;51.434;6.788;2023-04-28T06:45:50;11.90;99.90
9103;DHT22;4587;51.434;6.788;2023-04-28T06:48:15;12.00;99.90
9103;DHT22;4587;51.434;6.788;2023-04-28T06:50:41;12.00;99.90
9103;DHT22;4587;51.434;6.788;2023-04-28T06:53:07;12.00;99.90
9103;DHT22;4587;51.434;6.788;2023-04-28T06:55:33;12.10;99.90
9103;DHT22;4587;51.434;6.788;2023-04-28T06:57:59;12.30;99.90
9103;DHT22;4587;51.434;6.788;2023-04-28T07:00:25;12.70;99.90
9103;DHT22;4587;51.434;6.788;2023-04-28T07:02:51;13.00;99.90
9103;DHT22;4587;51.434;6.788;2023-04-28T07:05:17;13.20;99.90
9103;DHT22;4587;51.434;6.788;2023-04-28T07:07:43;13.30;99.90
9103;DHT22;4587;51.434;6.788;2023-04-28T07:10:10;13.50;99.90
9103;DHT22;4587;51.434;6.788;2023-04-28T07:12:35;13.80;99.90
9103;DHT22;4587;51.434;6.788;2023-04-28T07:15:01;14.20;99.90
9103;DHT22;4587;51.434;6.788;2023-04-28T07:17:27;14.40;99.90
9103;DHT22;4587;51.434;6.788;2023-04-28T07:19:53;14.50;99.90
9103;DHT22;4587;51.434;6.788;2023-04-28T07:22:18;14.60;99.90
9103;DHT22;4587;51.434;6.788;2023-04-28T07:24:44;14.60;99.90
9103;DHT22;4587;51.434;6.788;2023-04-28T07:27:10;14.60;99.90
9103;DHT22;4587;51.434;6.788;2023-04-28T07:29:35;14.50;99.90
9103;DHT22;4587;51.434;6.788;2023-04-28T07:32:01;14.40;99.90
9103;DHT22;4587;51.434;6.788;2023-04-28T07:34:29;14.50;99.90
9103;DHT22;4587;51.434;6.788;2023-04-28T07:36:55;14.60;99.90
9103;DHT22;4587;51.434;6.788;2023-04-28T07:39:21;14.60;99.90
9103;DHT22;4587;51.434;6.788;2023-04-28T07:41:47;14.60;99.90
9103;DHT22;4587;51.434;6.788;2023-04-28T07:44:12;14.60;99.90
9103;DHT22;4587;51.434;6.788;2023-04-28T07:46:38;14.60;99.90
9103;DHT22;4587;51.434;6.788;2023-04-28T07:49:04;14.60;99.90
9103;DHT22;4587;51.434;6.788;2023-04-28T07:51:30;14.70;99.90
9103;DHT22;4587;51.434;6.788;2023-04-28T07:53:56;14.80;99.90
9103;DHT22;4587;51.434;6.788;2023-04-28T07:56:22;14.80;99.90
9103;DHT22;4587;51.434;6.788;2023-04-28T07:58:48;14.80;99.90
9103;DHT22;4587;51.434;6.788;2023-04-28T08:01:13;14.80;99.90
9103;DHT22;4587;51.434;6.788;2023-04-28T08:03:42;14.70;99.90
9103;DHT22;4587;51.434;6.788;2023-04-28T08:06:08;14.70;99.90
9103;DHT22;4587;51.434;6.788;2023-04-28T08:08:33;14.60;99.90
9103;DHT22;4587;51.434;6.788;2023-04-28T08:11:00;14.70;99.90
9103;DHT22;4587;51.434;6.788;2023-04-28T08:13:26;14.70;99.90
9103;DHT22;4587;51.434;6.788;2023-04-28T08:15:53;14.90;99.90
9103;DHT22;4587;51.434;6.788;2023-04-28T08:18:21;15.00;99.90
9103;DHT22;4587;51.434;6.788;2023-04-28T08:20:47;15.10;99.90
9103;DHT22;4587;51.434;6.788;2023-04-28T08:23:13;15.10;99.90
9103;DHT22;4587;51.434;6.788;2023-04-28T08:25:38;15.20;99.90
9103;DHT22;4587;51.434;6.788;2023-04-28T08:28:04;15.30;99.90
9103;DHT22;4587;51.434;6.788;2023-04-28T08:30:31;15.30;99.90
9103;DHT22;4587;51.434;6.788;2023-04-28T08:32:56;15.30;99.90
9103;DHT22;4587;51.434;6.788;2023-04-28T08:35:22;15.30;99.90
9103;DHT22;4587;51.434;6.788;2023-04-28T08:37:48;15.40;99.90
9103;DHT22;4587;51.434;6.788;2023-04-28T08:40:14;15.30;99.90
9103;DHT22;4587;51.434;6.788;2023-04-28T08:42:40;15.40;99.90
9103;DHT22;4587;51.434;6.788;2023-04-28T08:45:07;15.30;99.90
9103;DHT22;4587;51.434;6.788;2023-04-28T08:47:38;15.30;99.90
9103;DHT22;4587;51.434;6.788;2023-04-28T08:50:08;15.40;99.90
9103;DHT22;4587;51.434;6.788;2023-04-28T08:52:35;15.40;99.90
9103;DHT22;4587;51.434;6.788;2023-04-28T08:55:05;15.40;99.90
9103;DHT22;4587;51.434;6.788;2023-04-28T08:57:38;15.40;99.90
9103;DHT22;4587;51.434;6.788;2023-04-28T09:00:05;15.40;99.90
9103;DHT22;4587;51.434;6.788;2023-04-28T09:02:31;15.40;99.90
9103;DHT22;4587;51.434;6.788;2023-04-28T09:04:57;15.50;99.90
9103;DHT22;4587;51.434;6.788;2023-04-28T09:07:23;15.70;99.90
9103;DHT22;4587;51.434;6.788;2023-04-28T09:09:49;15.90;99.90
9103;DHT22;4587;51.434;6.788;2023-04-28T09:12:15;16.00;99.90
9103;DHT22;4587;51.434;6.788;2023-04-28T09:14:42;16.00;99.90
9103;DHT22;4587;51.434;6.788;2023-04-28T09:17:12;15.90;99.90
9103;DHT22;4587;51.434;6.788;2023-04-28T09:19:39;15.80;99.90
9103;DHT22;4587;51.434;6.788;2023-04-28T09:22:07;15.90;99.90
9103;DHT22;4587;51.434;6.788;2023-04-28T09:24:39;15.90;99.90
9103;DHT22;4587;51.434;6.788;2023-04-28T09:27:07;15.80;99.90
9103;DHT22;4587;51.434;6.788;2023-04-28T09:29:38;15.70;99.90
9103;DHT22;4587;51.434;6.788;2023-04-28T09:32:20;15.60;99.90
9103;DHT22;4587;51.434;6.788;2023-04-28T09:34:51;15.60;99.90
9103;DHT22;4587;51.434;6.788;2023-04-28T09:37:19;15.80;99.90
9103;DHT22;4587;51.434;6.788;2023-04-28T09:39:51;15.90;99.90
9103;DHT22;4587;51.434;6.788;2023-04-28T09:42:36;16.00;99.90
9103;DHT22;4587;51.434;6.788;2023-04-28T09:45:07;16.10;99.90
9103;DHT22;4587;51.434;6.788;2023-04-28T09:47:35;16.10;99.90
9103;DHT22;4587;51.434;6.788;2023-04-28T09:50:06;16.40;99.90
9103;DHT22;4587;51.434;6.788;2023-04-28T09:52:35;16.70;99.90
9103;DHT22;4587;51.434;6.788;2023-04-28T09:55:05;16.70;99.90
9103;DHT22;4587;51.434;6.788;2023-04-28T09:57:34;16.90;99.90
9103;DHT22;4587;51.434;6.788;2023-04-28T10:00:01;17.00;99.90
9103;DHT22;4587;51.434;6.788;2023-04-28T10:02:31;17.10;99.90
9103;DHT22;4587;51.434;6.788;2023-04-28T10:04:57;17.00;99.90
9103;DHT22;4587;51.434;6.788;2023-04-28T10:07:22;16.90;99.90
9103;DHT22;4587;51.434;6.788;2023-04-28T10:09:51;16.70;99.90
9103;DHT22;4587;51.434;6.788;2023-04-28T10:12:22;16.50;99.90
9103;DHT22;4587;51.434;6.788;2023-04-28T10:14:49;16.30;99.90
9103;DHT22;4587;51.434;6.788;2023-04-28T10:17:16;16.30;99.90
9103;DHT22;4587;51.434;6.788;2023-04-28T10:19:43;16.20;99.90
9103;DHT22;4587;51.434;6.788;2023-04-28T10:27:42;16.00;99.90
9103;DHT22;4587;51.434;6.788;2023-04-28T10:30:26;16.00;99.90
9103;DHT22;4587;51.434;6.788;2023-04-28T10:35:43;15.90;99.90
9103;DHT22;4587;51.434;6.788;2023-04-28T10:38:14;15.90;99.90
9103;DHT22;4587;51.434;6.788;2023-04-28T10:40:48;15.80;99.90
9103;DHT22;4587;51.434;6.788;2023-04-28T10:43:32;15.80;99.90
9103;DHT22;4587;51.434;6.788;2023-04-28T10:56:24;15.80;99.90
9103;DHT22;4587;51.434;6.788;2023-04-28T10:58:51;15.90;99.90
9103;DHT22;4587;51.434;6.788;2023-04-28T11:06:25;15.90;99.90
9103;DHT22;4587;51.434;6.788;2023-04-28T11:08:55;15.90;99.90
9103;DHT22;4587;51.434;6.788;2023-04-28T11:11:22;15.80;99.90
9103;DHT22;4587;51.434;6.788;2023-04-28T11:13:51;15.80;99.90
9103;DHT22;4587;51.434;6.788;2023-04-28T11:16:19;15.90;99.90
9103;DHT22;4587;51.434;6.788;2023-04-28T11:18:49;15.80;99.90
9103;DHT22;4587;51.434;6.788;2023-04-28T11:21:15;15.80;99.90
9103;DHT22;4587;51.434;6.788;2023-04-28T11:23:42;15.80;99.90
9103;DHT22;4587;51.434;6.788;2023-04-28T11:26:08;15.80;99.90
9103;DHT22;4587;51.434;6.788;2023-04-28T11:28:33;15.80;99.90
9103;DHT22;4587;51.434;6.788;2023-04-28T11:31:13;15.80;99.90
9103;DHT22;4587;51.434;6.788;2023-04-28T11:34:01;15.80;99.90
9103;DHT22;4587;51.434;6.788;2023-04-28T11:36:36;15.80;99.90
9103;DHT22;4587;51.434;6.788;2023-04-28T11:39:09;15.90;99.90
9103;DHT22;4587;51.434;6.788;2023-04-28T11:41:40;16.00;99.90
9103;DHT22;4587;51.434;6.788;2023-04-28T11:44:20;16.00;99.90
9103;DHT22;4587;51.434;6.788;2023-04-28T11:46:48;16.00;99.90
9103;DHT22;4587;51.434;6.788;2023-04-28T11:49:20;16.00;99.90
9103;DHT22;4587;51.434;6.788;2023-04-28T11:51:47;16.00;99.90
9103;DHT22;4587;51.434;6.788;2023-04-28T11:54:22;16.10;99.90
9103;DHT22;4587;51.434;6.788;2023-04-28T11:56:48;16.20;99.90
9103;DHT22;4587;51.434;6.788;2023-04-28T11:59:14;16.20;99.90
9103;DHT22;4587;51.434;6.788;2023-04-28T12:04:25;16.10;99.90
9103;DHT22;4587;51.434;6.788;2023-04-28T12:09:29;16.20;99.90
9103;DHT22;4587;51.434;6.788;2023-04-28T12:14:30;16.50;99.90
9103;DHT22;4587;51.434;6.788;2023-04-28T12:17:02;16.70;99.90
9103;DHT22;4587;51.434;6.788;2023-04-28T12:19:28;16.80;99.90
9103;DHT22;4587;51.434;6.788;2023-04-28T12:22:04;16.90;99.90
9103;DHT22;4587;51.434;6.788;2023-04-28T12:24:31;16.90;99.90
9103;DHT22;4587;51.434;6.788;2023-04-28T12:27:13;16.90;99.90
9103;DHT22;4587;51.434;6.788;2023-04-28T12:29:41;16.90;99.90
9103;DHT22;4587;51.434;6.788;2023-04-28T12:32:08;16.90;99.90
9103;DHT22;4587;51.434;6.788;2023-04-28T12:34:35;16.90;99.90
9103;DHT22;4587;51.434;6.788;2023-04-28T12:37:02;17.10;99.90
9103;DHT22;4587;51.434;6.788;2023-04-28T12:39:31;17.30;99.90
9103;DHT22;4587;51.434;6.788;2023-04-28T12:41:57;17.70;99.90
9103;DHT22;4587;51.434;6.788;2023-04-28T12:44:25;18.00;99.90
9103;DHT22;4587;51.434;6.788;2023-04-28T12:46:52;18.20;99.90
9103;DHT22;4587;51.434;6.788;2023-04-28T12:49:19;18.50;99.90
9103;DHT22;4587;51.434;6.788;2023-04-28T12:51:45;18.70;99.90
9103;DHT22;4587;51.434;6.788;2023-04-28T12:54:10;18.90;99.90
9103;DHT22;4587;51.434;6.788;2023-04-28T12:56:36;18.90;99.90
9103;DHT22;4587;51.434;6.788;2023-04-28T12:59:02;18.80;99.90
9103;DHT22;4587;51.434;6.788;2023-04-28T13:01:28;18.80;99.90
9103;DHT22;4587;51.434;6.788;2023-04-28T13:03:54;18.60;99.90
9103;DHT22;4587;51.434;6.788;2023-04-28T13:06:20;18.50;99.90
9103;DHT22;4587;51.434;6.788;2023-04-28T13:08:45;18.30;99.90
9103;DHT22;4587;51.434;6.788;2023-04-28T13:11:11;18.20;99.90
9103;DHT22;4587;51.434;6.788;2023-04-28T13:13:37;18.10;99.90
9103;DHT22;4587;51.434;6.788;2023-04-28T13:16:03;18.00;99.90
9103;DHT22;4587;51.434;6.788;2023-04-28T13:18:29;18.00;99.90
9103;DHT22;4587;51.434;6.788;2023-04-28T13:20:56;18.10;99.90
9103;DHT22;4587;51.434;6.788;2023-04-28T13:23:21;18.30;99.90
9103;DHT22;4587;51.434;6.788;2023-04-28T13:25:47;18.50;99.90
9103;DHT22;4587;51.434;6.788;2023-04-28T13:28:13;18.60;99.90
9103;DHT22;4587;51.434;6.788;2023-04-28T13:30:39;18.70;99.90
9103;DHT22;4587;51.434;6.788;2023-04-28T13:33:05;18.90;99.90
9103;DHT22;4587;51.434;6.788;2023-04-28T13:35:31;19.00;99.90
9103;DHT22;4587;51.434;6.788;2023-04-28T13:37:56;18.90;99.90
9103;DHT22;4587;51.434;6.788;2023-04-28T13:40:29;18.80;99.90
9103;DHT22;4587;51.434;6.788;2023-04-28T13:42:55;18.80;99.90
9103;DHT22;4587;51.434;6.788;2023-04-28T13:45:21;18.70;99.90
9103;DHT22;4587;51.434;6.788;2023-04-28T13:47:47;18.60;99.90
9103;DHT22;4587;51.434;6.788;2023-04-28T13:50:13;18.60;99.90
9103;DHT22;4587;51.434;6.788;2023-04-28T13:52:39;18.60;99.90
9103;DHT22;4587;51.434;6.788;2023-04-28T13:55:05;18.60;99.90
9103;DHT22;4587;51.434;6.788;2023-04-28T13:57:31;18.60;99.90
9103;DHT22;4587;51.434;6.788;2023-04-28T13:59:57;18.60;99.90
9103;DHT22;4587;51.434;6.788;2023-04-28T14:02:22;18.60;99.90
9103;DHT22;4587;51.434;6.788;2023-04-28T14:04:48;18.60;99.90
9103;DHT22;4587;51.434;6.788;2023-04-28T14:07:15;18.70;99.90
9103;DHT22;4587;51.434;6.788;2023-04-28T14:09:40;18.70;99.90
9103;DHT22;4587;51.434;6.788;2023-04-28T14:12:06;18.60;99.90
9103;DHT22;4587;51.434;6.788;2023-04-28T14:14:32;18.60;99.90
9103;DHT22;4587;51.434;6.788;2023-04-28T14:16:58;18.50;99.90
9103;DHT22;4587;51.434;6.788;2023-04-28T14:19:23;18.40;99.90
9103;DHT22;4587;51.434;6.788;2023-04-28T14:21:51;18.40;99.90
9103;DHT22;4587;51.434;6.788;2023-04-28T14:24:17;18.40;99.90
9103;DHT22;4587;51.434;6.788;2023-04-28T14:26:44;18.60;99.90
9103;DHT22;4587;51.434;6.788;2023-04-28T14:29:10;18.90;99.90
9103;DHT22;4587;51.434;6.788;2023-04-28T14:31:36;18.90;99.90
9103;DHT22;4587;51.434;6.788;2023-04-28T14:34:03;19.00;99.90
9103;DHT22;4587;51.434;6.788;2023-04-28T14:36:30;19.00;99.90
9103;DHT22;4587;51.434;6.788;2023-04-28T14:38:58;19.00;99.90
9103;DHT22;4587;51.434;6.788;2023-04-28T14:41:24;19.00;99.90
9103;DHT22;4587;51.434;6.788;2023-04-28T14:43:50;18.80;99.90
9103;DHT22;4587;51.434;6.788;2023-04-28T14:46:16;18.70;99.90
9103;DHT22;4587;51.434;6.788;2023-04-28T14:48:44;18.50;99.90
9103;DHT22;4587;51.434;6.788;2023-04-28T14:51:10;18.50;99.90
9103;DHT22;4587;51.434;6.788;2023-04-28T14:53:35;18.50;99.90
9103;DHT22;4587;51.434;6.788;2023-04-28T14:56:02;18.60;99.90
9103;DHT22;4587;51.434;6.788;2023-04-28T14:58:28;18.70;99.90
9103;DHT22;4587;51.434;6.788;2023-04-28T15:00:54;18.70;99.90
9103;DHT22;4587;51.434;6.788;2023-04-28T15:03:19;18.60;99.90
9103;DHT22;4587;51.434;6.788;2023-04-28T15:05:45;18.60;99.90
9103;DHT22;4587;51.434;6.788;2023-04-28T15:08:11;18.50;99.90
9103;DHT22;4587;51.434;6.788;2023-04-28T15:10:38;18.50;99.90
9103;DHT22;4587;51.434;6.788;2023-04-28T15:13:05;18.40;99.90
9103;DHT22;4587;51.434;6.788;2023-04-28T15:15:31;18.30;99.90
9103;DHT22;4587;51.434;6.788;2023-04-28T15:17:57;18.20;99.90
9103;DHT22;4587;51.434;6.788;2023-04-28T15:20:29;18.10;99.90
9103;DHT22;4587;51.434;6.788;2023-04-28T15:22:55;18.00;99.90
9103;DHT22;4587;51.434;6.788;2023-04-28T15:25:21;17.90;99.90
9103;DHT22;4587;51.434;6.788;2023-04-28T15:27:47;17.70;99.90
9103;DHT22;4587;51.434;6.788;2023-04-28T15:30:15;17.50;99.90
9103;DHT22;4587;51.434;6.788;2023-04-28T15:32:42;17.40;99.90
9103;DHT22;4587;51.434;6.788;2023-04-28T15:35:09;17.30;99.90
9103;DHT22;4587;51.434;6.788;2023-04-28T15:37:45;17.20;99.90
9103;DHT22;4587;51.434;6.788;2023-04-28T15:40:17;17.10;99.90
9103;DHT22;4587;51.434;6.788;2023-04-28T15:42:44;17.00;99.90
9103;DHT22;4587;51.434;6.788;2023-04-28T15:45:14;17.00;99.90
9103;DHT22;4587;51.434;6.788;2023-04-28T15:47:41;17.10;99.90
9103;DHT22;4587;51.434;6.788;2023-04-28T15:50:10;17.20;99.90
9103;DHT22;4587;51.434;6.788;2023-04-28T15:52:40;17.30;99.90
9103;DHT22;4587;51.434;6.788;2023-04-28T15:55:11;17.40;99.90
9103;DHT22;4587;51.434;6.788;2023-04-28T15:57:37;17.50;99.90
9103;DHT22;4587;51.434;6.788;2023-04-28T16:00:04;17.50;99.90
9103;DHT22;4587;51.434;6.788;2023-04-28T16:02:31;17.50;99.90
9103;DHT22;4587;51.434;6.788;2023-04-28T16:04:57;17.50;99.90
9103;DHT22;4587;51.434;6.788;2023-04-28T16:07:27;17.40;99.90
9103;DHT22;4587;51.434;6.788;2023-04-28T16:09:55;17.40;99.90
9103;DHT22;4587;51.434;6.788;2023-04-28T16:12:20;17.40;99.90
9103;DHT22;4587;51.434;6.788;2023-04-28T16:14:49;17.40;99.90
9103;DHT22;4587;51.434;6.788;2023-04-28T16:17:15;17.30;99.90
9103;DHT22;4587;51.434;6.788;2023-04-28T16:19:42;17.30;99.90
9103;DHT22;4587;51.434;6.788;2023-04-28T16:22:08;17.10;99.90
9103;DHT22;4587;51.434;6.788;2023-04-28T16:24:33;17.10;99.90
9103;DHT22;4587;51.434;6.788;2023-04-28T16:27:01;17.10;99.90
9103;DHT22;4587;51.434;6.788;2023-04-28T16:29:28;17.00;99.90
9103;DHT22;4587;51.434;6.788;2023-04-28T16:31:53;16.90;99.90